Kingman, AZ

5:16 AM MST on February 13, 2016 (GMT -0700)
Southeast Kingman | | Change Station
CLOSE
Current Station
Personal Weather Station
Location: Kingman, AZ
Elevation: 3584 ft
Nearby Weather Stations

Elev 3584 ft 35.20 °N, 114.00 °W | Updated 5 minutes ago

Clear
Clear
41.7 °F
Feels Like 42 °F
N
0.0
Wind Variable Wind from ENE
Gusts 0.0 mph

Today
High -- | Low -- °F
--% Chance of Precip.
Yesterday
High -- | Low -- °F
Precip. -- in
Pressure 30.04 in
Visibility -9999.0 miles
Clouds Clear
Windchill 42 °F
Dew Point 23 °F
Humidity 47%
Rainfall 0.00 in
Snow Depth Not available.
7:24 AM 6:16 PM
Waxing Crescent, 30% visible
METAR KIGM 131151Z AUTO 20003KT CLR 03/M06 A3016 RMK AO2 SLP172 T00331056 10100 20033 56007
Pressure 30.04 in
Visibility -9999.0 miles
Clouds Clear
Windchill 42 °F
Dew Point 23 °F
Humidity 47%
Rainfall 0.00 in
Snow Depth Not available.
7:24 AM 6:16 PM
Waxing Crescent, 30% visible
METAR KIGM 131151Z AUTO 20003KT CLR 03/M06 A3016 RMK AO2 SLP172 T00331056 10100 20033 56007

10-Day Weather Forecast

Almanac

Astronomy

Feb. 13, 2016 Rise Set
Actual Time
Civil Twilight
Nautical Twilight
Astronomical Twilight
Moon
Length of Visible Light
Length of Day
Tomorrow will be .
, % of the Moon is Illuminated

Today's Extremes

State Highs State Lows

Community

WunderPhotos

Upload Photos

1,892,543 photos uploaded!

WunderBlog® & News

Nearby

Air Quality

  Air Quality AQ Index Pollutant
Not available.

Snow Depth

Station Depth Elevation

Earthquake Activity

City Distance Mag. Time & Date
Minimum magnitude displayed is 2.5.

Coastal Water Temperatures

Place Temperature

Stations

Nearby Weather Stations

Station Location Temp. Windchill Dew Point Humidity Wind Precip. Elev Updated Type
                   

Watches & Warnings

There are currently no watches in effect.